Saint Mary, Montana
Current Conditions -  °F | °C
As of 2:56 AM on Monday 20 Oct 2014 (Local Time) from KCTB Reporting Station
Clear Clear  
Wind Chill:   Ceiling: Unl
Heat Index:   Visibility: 10mi
Dew Point: -2°   Wind: 0mph
Humidity: 53%   Direction: NA
Pressure: 29.85"   Gusts: NA
Location:  48.5484°N, 112.952°W
Report Text: KCTB 200856Z AUTO 00000KT 10SM CLR 07/M02 A2985 RMK AO2 SLP091 T00721017 56007 $
Loading
Personal Weather Stations






























Interactive Weather Map
Tropical Storm Tracking
New forecast layout! Learn more

10-Day Weather Forecast

Advertisements
Track Severe Weather on mobile